sensor_id;sensor_type;location;lat;lon;timestamp;P1;durP1;ratioP1;P2;durP2;ratioP2
60060;SDS011;45933;51.336;12.612;2022-08-21T00:01:18;32.17;;;28.48;;
60060;SDS011;45933;51.336;12.612;2022-08-21T00:03:45;32.05;;;27.38;;
60060;SDS011;45933;51.336;12.612;2022-08-21T00:06:11;31.70;;;28.00;;
60060;SDS011;45933;51.336;12.612;2022-08-21T00:08:37;29.20;;;25.65;;
60060;SDS011;45933;51.336;12.612;2022-08-21T00:11:03;32.05;;;28.58;;
60060;SDS011;45933;51.336;12.612;2022-08-21T00:13:28;33.67;;;29.23;;
60060;SDS011;45933;51.336;12.612;2022-08-21T00:15:54;32.03;;;28.40;;
60060;SDS011;45933;51.336;12.612;2022-08-21T00:18:19;32.25;;;28.75;;
60060;SDS011;45933;51.336;12.612;2022-08-21T00:20:45;32.53;;;29.02;;
60060;SDS011;45933;51.336;12.612;2022-08-21T00:23:12;30.13;;;26.92;;
60060;SDS011;45933;51.336;12.612;2022-08-21T00:25:38;29.10;;;25.05;;
60060;SDS011;45933;51.336;12.612;2022-08-21T00:28:04;28.55;;;25.42;;
60060;SDS011;45933;51.336;12.612;2022-08-21T00:30:31;29.13;;;26.02;;
60060;SDS011;45933;51.336;12.612;2022-08-21T00:32:58;28.27;;;25.38;;
60060;SDS011;45933;51.336;12.612;2022-08-21T00:35:27;30.67;;;27.30;;
60060;SDS011;45933;51.336;12.612;2022-08-21T00:37:56;28.20;;;24.30;;
60060;SDS011;45933;51.336;12.612;2022-08-21T00:40:24;26.90;;;23.75;;
60060;SDS011;45933;51.336;12.612;2022-08-21T00:42:52;28.08;;;24.95;;
60060;SDS011;45933;51.336;12.612;2022-08-21T00:45:18;26.85;;;23.92;;
60060;SDS011;45933;51.336;12.612;2022-08-21T00:47:43;26.88;;;22.88;;
60060;SDS011;45933;51.336;12.612;2022-08-21T00:50:09;24.48;;;21.88;;
60060;SDS011;45933;51.336;12.612;2022-08-21T00:52:36;24.08;;;21.33;;
60060;SDS011;45933;51.336;12.612;2022-08-21T00:55:03;28.13;;;22.77;;
60060;SDS011;45933;51.336;12.612;2022-08-21T00:57:40;22.92;;;20.52;;
60060;SDS011;45933;51.336;12.612;2022-08-21T01:00:12;22.85;;;19.52;;
60060;SDS011;45933;51.336;12.612;2022-08-21T01:02:41;23.33;;;20.10;;
60060;SDS011;45933;51.336;12.612;2022-08-21T01:05:07;22.10;;;19.70;;
60060;SDS011;45933;51.336;12.612;2022-08-21T01:07:33;21.55;;;19.30;;
60060;SDS011;45933;51.336;12.612;2022-08-21T01:09:59;23.15;;;17.85;;
60060;SDS011;45933;51.336;12.612;2022-08-21T01:12:24;20.42;;;18.33;;
60060;SDS011;45933;51.336;12.612;2022-08-21T01:14:50;17.80;;;15.82;;
60060;SDS011;45933;51.336;12.612;2022-08-21T01:17:16;18.48;;;16.58;;
60060;SDS011;45933;51.336;12.612;2022-08-21T01:19:43;18.27;;;16.42;;
60060;SDS011;45933;51.336;12.612;2022-08-21T01:22:09;17.00;;;15.20;;
60060;SDS011;45933;51.336;12.612;2022-08-21T01:24:35;18.25;;;16.27;;
60060;SDS011;45933;51.336;12.612;2022-08-21T01:27:00;17.27;;;14.00;;
60060;SDS011;45933;51.336;12.612;2022-08-21T01:32:02;14.43;;;12.95;;
60060;SDS011;45933;51.336;12.612;2022-08-21T01:34:33;13.77;;;12.43;;
60060;SDS011;45933;51.336;12.612;2022-08-21T01:37:01;14.95;;;12.02;;
60060;SDS011;45933;51.336;12.612;2022-08-21T01:39:27;14.70;;;12.30;;
60060;SDS011;45933;51.336;12.612;2022-08-21T01:41:53;13.02;;;11.73;;
60060;SDS011;45933;51.336;12.612;2022-08-21T01:44:21;12.18;;;10.98;;
60060;SDS011;45933;51.336;12.612;2022-08-21T01:46:47;12.52;;;11.25;;
60060;SDS011;45933;51.336;12.612;2022-08-21T01:49:13;11.85;;;10.63;;
60060;SDS011;45933;51.336;12.612;2022-08-21T01:51:40;12.25;;;10.93;;
60060;SDS011;45933;51.336;12.612;2022-08-21T01:54:06;11.43;;;10.25;;
60060;SDS011;45933;51.336;12.612;2022-08-21T01:56:35;11.90;;;10.52;;
60060;SDS011;45933;51.336;12.612;2022-08-21T01:59:08;11.63;;;9.70;;
60060;SDS011;45933;51.336;12.612;2022-08-21T02:01:34;11.32;;;10.23;;
60060;SDS011;45933;51.336;12.612;2022-08-21T02:04:00;11.52;;;10.32;;
60060;SDS011;45933;51.336;12.612;2022-08-21T02:06:26;11.15;;;10.07;;
60060;SDS011;45933;51.336;12.612;2022-08-21T02:08:52;11.57;;;10.23;;
60060;SDS011;45933;51.336;12.612;2022-08-21T02:11:18;14.18;;;10.75;;
60060;SDS011;45933;51.336;12.612;2022-08-21T02:13:44;9.20;;;8.27;;
60060;SDS011;45933;51.336;12.612;2022-08-21T02:16:10;11.38;;;10.23;;
60060;SDS011;45933;51.336;12.612;2022-08-21T02:18:36;12.88;;;10.20;;
60060;SDS011;45933;51.336;12.612;2022-08-21T02:21:02;10.23;;;9.18;;
60060;SDS011;45933;51.336;12.612;2022-08-21T02:23:28;10.95;;;9.85;;
60060;SDS011;45933;51.336;12.612;2022-08-21T02:25:56;11.00;;;9.85;;
60060;SDS011;45933;51.336;12.612;2022-08-21T02:28:22;11.73;;;10.32;;
60060;SDS011;45933;51.336;12.612;2022-08-21T02:30:48;13.52;;;9.85;;
60060;SDS011;45933;51.336;12.612;2022-08-21T02:33:14;11.35;;;9.75;;
60060;SDS011;45933;51.336;12.612;2022-08-21T02:35:40;15.88;;;10.93;;
60060;SDS011;45933;51.336;12.612;2022-08-21T02:38:09;11.27;;;10.10;;
60060;SDS011;45933;51.336;12.612;2022-08-21T02:40:37;12.68;;;9.55;;
60060;SDS011;45933;51.336;12.612;2022-08-21T02:43:04;13.57;;;10.13;;
60060;SDS011;45933;51.336;12.612;2022-08-21T02:45:32;11.10;;;10.00;;
60060;SDS011;45933;51.336;12.612;2022-08-21T02:47:59;11.90;;;10.35;;
60060;SDS011;45933;51.336;12.612;2022-08-21T02:50:27;11.93;;;9.60;;
60060;SDS011;45933;51.336;12.612;2022-08-21T02:52:55;10.68;;;9.57;;
60060;SDS011;45933;51.336;12.612;2022-08-21T02:55:22;10.90;;;9.10;;
60060;SDS011;45933;51.336;12.612;2022-08-21T02:57:49;11.27;;;9.38;;
60060;SDS011;45933;51.336;12.612;2022-08-21T03:00:15;12.68;;;8.95;;
60060;SDS011;45933;51.336;12.612;2022-08-21T03:02:41;11.65;;;9.25;;
60060;SDS011;45933;51.336;12.612;2022-08-21T03:05:07;11.15;;;10.05;;
60060;SDS011;45933;51.336;12.612;2022-08-21T03:07:36;14.40;;;9.43;;
60060;SDS011;45933;51.336;12.612;2022-08-21T03:10:05;9.88;;;8.82;;
60060;SDS011;45933;51.336;12.612;2022-08-21T03:12:31;12.70;;;9.27;;
60060;SDS011;45933;51.336;12.612;2022-08-21T03:14:57;9.98;;;8.98;;
60060;SDS011;45933;51.336;12.612;2022-08-21T03:17:22;11.13;;;8.32;;
60060;SDS011;45933;51.336;12.612;2022-08-21T03:19:49;10.07;;;8.63;;
60060;SDS011;45933;51.336;12.612;2022-08-21T03:22:14;17.60;;;8.57;;
60060;SDS011;45933;51.336;12.612;2022-08-21T03:24:40;9.30;;;8.30;;
60060;SDS011;45933;51.336;12.612;2022-08-21T03:27:05;10.07;;;8.52;;
60060;SDS011;45933;51.336;12.612;2022-08-21T03:29:30;12.30;;;8.18;;
60060;SDS011;45933;51.336;12.612;2022-08-21T03:31:56;11.32;;;8.38;;
60060;SDS011;45933;51.336;12.612;2022-08-21T03:34:21;8.68;;;7.70;;
60060;SDS011;45933;51.336;12.612;2022-08-21T03:36:47;8.57;;;7.60;;
60060;SDS011;45933;51.336;12.612;2022-08-21T03:39:14;10.93;;;7.35;;
60060;SDS011;45933;51.336;12.612;2022-08-21T03:41:40;7.53;;;6.82;;
60060;SDS011;45933;51.336;12.612;2022-08-21T03:44:06;7.35;;;6.45;;
60060;SDS011;45933;51.336;12.612;2022-08-21T03:46:32;9.88;;;6.75;;
60060;SDS011;45933;51.336;12.612;2022-08-21T03:48:57;7.18;;;6.38;;
60060;SDS011;45933;51.336;12.612;2022-08-21T03:51:22;9.10;;;5.85;;
60060;SDS011;45933;51.336;12.612;2022-08-21T03:53:48;9.35;;;6.10;;
60060;SDS011;45933;51.336;12.612;2022-08-21T03:56:13;7.82;;;5.90;;
60060;SDS011;45933;51.336;12.612;2022-08-21T03:58:40;11.15;;;6.22;;
60060;SDS011;45933;51.336;12.612;2022-08-21T04:01:06;9.18;;;6.63;;
60060;SDS011;45933;51.336;12.612;2022-08-21T04:03:32;8.32;;;5.50;;
60060;SDS011;45933;51.336;12.612;2022-08-21T04:06:00;6.95;;;5.75;;
60060;SDS011;45933;51.336;12.612;2022-08-21T04:08:25;5.78;;;5.18;;
60060;SDS011;45933;51.336;12.612;2022-08-21T04:10:52;7.80;;;6.05;;
60060;SDS011;45933;51.336;12.612;2022-08-21T04:13:19;7.00;;;5.53;;
60060;SDS011;45933;51.336;12.612;2022-08-21T04:15:45;5.63;;;5.13;;
60060;SDS011;45933;51.336;12.612;2022-08-21T04:18:10;8.32;;;5.18;;
60060;SDS011;45933;51.336;12.612;2022-08-21T04:20:36;6.30;;;4.68;;
60060;SDS011;45933;51.336;12.612;2022-08-21T04:23:02;6.05;;;5.40;;
60060;SDS011;45933;51.336;12.612;2022-08-21T04:25:28;7.00;;;4.93;;
60060;SDS011;45933;51.336;12.612;2022-08-21T04:27:53;5.20;;;4.70;;
60060;SDS011;45933;51.336;12.612;2022-08-21T04:30:19;6.15;;;4.55;;
60060;SDS011;45933;51.336;12.612;2022-08-21T04:32:46;6.57;;;4.20;;
60060;SDS011;45933;51.336;12.612;2022-08-21T04:35:13;6.15;;;4.80;;
60060;SDS011;45933;51.336;12.612;2022-08-21T04:37:40;5.22;;;4.35;;
60060;SDS011;45933;51.336;12.612;2022-08-21T04:40:06;8.30;;;4.82;;
60060;SDS011;45933;51.336;12.612;2022-08-21T04:42:40;7.78;;;4.47;;
60060;SDS011;45933;51.336;12.612;2022-08-21T04:45:15;5.30;;;4.22;;
60060;SDS011;45933;51.336;12.612;2022-08-21T04:47:42;8.55;;;4.50;;
60060;SDS011;45933;51.336;12.612;2022-08-21T04:50:08;5.93;;;4.97;;
60060;SDS011;45933;51.336;12.612;2022-08-21T04:52:33;7.47;;;4.82;;
60060;SDS011;45933;51.336;12.612;2022-08-21T04:54:59;7.88;;;5.70;;
60060;SDS011;45933;51.336;12.612;2022-08-21T04:57:26;8.40;;;4.55;;
60060;SDS011;45933;51.336;12.612;2022-08-21T04:59:51;8.38;;;5.18;;
60060;SDS011;45933;51.336;12.612;2022-08-21T05:02:17;6.20;;;4.80;;
60060;SDS011;45933;51.336;12.612;2022-08-21T05:04:45;7.15;;;5.10;;
60060;SDS011;45933;51.336;12.612;2022-08-21T05:07:17;5.82;;;4.22;;
60060;SDS011;45933;51.336;12.612;2022-08-21T05:09:46;6.40;;;4.43;;
60060;SDS011;45933;51.336;12.612;2022-08-21T05:12:12;6.03;;;4.47;;
60060;SDS011;45933;51.336;12.612;2022-08-21T05:14:37;7.20;;;4.70;;
60060;SDS011;45933;51.336;12.612;2022-08-21T05:17:03;6.30;;;4.80;;
60060;SDS011;45933;51.336;12.612;2022-08-21T05:19:29;8.52;;;4.47;;
60060;SDS011;45933;51.336;12.612;2022-08-21T05:21:55;7.03;;;4.47;;
60060;SDS011;45933;51.336;12.612;2022-08-21T05:24:20;7.20;;;5.05;;
60060;SDS011;45933;51.336;12.612;2022-08-21T05:26:45;6.00;;;4.80;;
60060;SDS011;45933;51.336;12.612;2022-08-21T05:29:11;7.05;;;5.68;;
60060;SDS011;45933;51.336;12.612;2022-08-21T05:31:37;7.97;;;4.68;;
60060;SDS011;45933;51.336;12.612;2022-08-21T05:34:03;5.82;;;4.30;;
60060;SDS011;45933;51.336;12.612;2022-08-21T05:36:29;6.68;;;4.60;;
60060;SDS011;45933;51.336;12.612;2022-08-21T05:38:54;6.10;;;4.45;;
60060;SDS011;45933;51.336;12.612;2022-08-21T05:41:20;7.53;;;4.25;;
60060;SDS011;45933;51.336;12.612;2022-08-21T05:43:45;9.95;;;4.32;;
60060;SDS011;45933;51.336;12.612;2022-08-21T05:46:11;4.82;;;4.30;;
60060;SDS011;45933;51.336;12.612;2022-08-21T05:48:36;4.70;;;4.30;;
60060;SDS011;45933;51.336;12.612;2022-08-21T05:51:05;5.13;;;4.50;;
60060;SDS011;45933;51.336;12.612;2022-08-21T05:53:36;5.53;;;4.15;;
60060;SDS011;45933;51.336;12.612;2022-08-21T05:56:02;8.52;;;4.18;;
60060;SDS011;45933;51.336;12.612;2022-08-21T05:58:29;4.45;;;3.83;;
60060;SDS011;45933;51.336;12.612;2022-08-21T06:00:55;5.53;;;4.07;;
60060;SDS011;45933;51.336;12.612;2022-08-21T06:03:22;5.43;;;3.72;;
60060;SDS011;45933;51.336;12.612;2022-08-21T06:05:49;6.88;;;4.40;;
60060;SDS011;45933;51.336;12.612;2022-08-21T06:08:15;7.07;;;4.65;;
60060;SDS011;45933;51.336;12.612;2022-08-21T06:10:41;5.68;;;4.32;;
60060;SDS011;45933;51.336;12.612;2022-08-21T06:13:07;9.55;;;5.47;;
60060;SDS011;45933;51.336;12.612;2022-08-21T06:15:33;9.45;;;4.45;;
60060;SDS011;45933;51.336;12.612;2022-08-21T06:17:58;5.88;;;3.38;;
60060;SDS011;45933;51.336;12.612;2022-08-21T06:20:24;9.07;;;3.83;;
60060;SDS011;45933;51.336;12.612;2022-08-21T06:22:49;4.43;;;3.38;;
60060;SDS011;45933;51.336;12.612;2022-08-21T06:25:14;5.13;;;3.33;;
60060;SDS011;45933;51.336;12.612;2022-08-21T06:27:40;6.55;;;3.88;;
60060;SDS011;45933;51.336;12.612;2022-08-21T06:30:06;7.90;;;3.55;;
60060;SDS011;45933;51.336;12.612;2022-08-21T06:32:32;6.75;;;3.75;;
60060;SDS011;45933;51.336;12.612;2022-08-21T06:34:58;6.13;;;3.67;;
60060;SDS011;45933;51.336;12.612;2022-08-21T06:37:23;7.88;;;4.22;;
60060;SDS011;45933;51.336;12.612;2022-08-21T06:39:49;6.45;;;3.67;;
60060;SDS011;45933;51.336;12.612;2022-08-21T06:42:15;11.18;;;4.53;;
60060;SDS011;45933;51.336;12.612;2022-08-21T06:44:41;5.05;;;3.25;;
60060;SDS011;45933;51.336;12.612;2022-08-21T06:47:07;6.95;;;3.53;;
60060;SDS011;45933;51.336;12.612;2022-08-21T06:49:33;6.28;;;3.53;;
60060;SDS011;45933;51.336;12.612;2022-08-21T06:51:59;4.60;;;3.42;;
60060;SDS011;45933;51.336;12.612;2022-08-21T06:54:28;4.57;;;2.67;;
60060;SDS011;45933;51.336;12.612;2022-08-21T06:56:55;5.10;;;3.03;;
60060;SDS011;45933;51.336;12.612;2022-08-21T06:59:21;4.25;;;3.17;;
60060;SDS011;45933;51.336;12.612;2022-08-21T07:01:46;6.53;;;3.70;;
60060;SDS011;45933;51.336;12.612;2022-08-21T07:04:11;4.32;;;3.10;;
60060;SDS011;45933;51.336;12.612;2022-08-21T07:06:37;5.57;;;2.55;;
60060;SDS011;45933;51.336;12.612;2022-08-21T07:09:02;5.07;;;2.60;;
60060;SDS011;45933;51.336;12.612;2022-08-21T07:11:28;5.30;;;2.45;;
60060;SDS011;45933;51.336;12.612;2022-08-21T07:13:54;5.00;;;2.67;;
60060;SDS011;45933;51.336;12.612;2022-08-21T07:16:21;6.88;;;2.80;;
60060;SDS011;45933;51.336;12.612;2022-08-21T07:18:47;6.13;;;2.80;;
60060;SDS011;45933;51.336;12.612;2022-08-21T07:21:13;5.22;;;2.53;;
60060;SDS011;45933;51.336;12.612;2022-08-21T07:23:41;9.52;;;2.47;;
60060;SDS011;45933;51.336;12.612;2022-08-21T07:26:09;6.20;;;2.28;;
60060;SDS011;45933;51.336;12.612;2022-08-21T07:28:34;4.03;;;2.25;;
60060;SDS011;45933;51.336;12.612;2022-08-21T07:31:00;4.00;;;2.72;;
60060;SDS011;45933;51.336;12.612;2022-08-21T07:33:28;4.65;;;2.42;;
60060;SDS011;45933;51.336;12.612;2022-08-21T07:35:55;7.55;;;3.17;;
60060;SDS011;45933;51.336;12.612;2022-08-21T07:38:20;8.52;;;2.75;;
60060;SDS011;45933;51.336;12.612;2022-08-21T07:40:46;5.72;;;3.03;;
60060;SDS011;45933;51.336;12.612;2022-08-21T07:43:14;9.50;;;2.88;;
60060;SDS011;45933;51.336;12.612;2022-08-21T07:45:42;6.47;;;3.22;;
60060;SDS011;45933;51.336;12.612;2022-08-21T07:48:08;3.22;;;2.05;;
60060;SDS011;45933;51.336;12.612;2022-08-21T07:50:34;5.97;;;2.70;;
60060;SDS011;45933;51.336;12.612;2022-08-21T07:53:00;6.38;;;2.75;;
60060;SDS011;45933;51.336;12.612;2022-08-21T07:55:26;7.60;;;2.22;;
60060;SDS011;45933;51.336;12.612;2022-08-21T07:57:51;4.18;;;2.58;;
60060;SDS011;45933;51.336;12.612;2022-08-21T08:00:18;7.75;;;2.22;;
60060;SDS011;45933;51.336;12.612;2022-08-21T08:02:46;6.53;;;2.30;;
60060;SDS011;45933;51.336;12.612;2022-08-21T08:05:17;4.18;;;2.30;;
60060;SDS011;45933;51.336;12.612;2022-08-21T08:07:44;3.58;;;2.13;;
60060;SDS011;45933;51.336;12.612;2022-08-21T08:10:10;9.00;;;2.53;;
60060;SDS011;45933;51.336;12.612;2022-08-21T08:12:37;5.55;;;2.00;;
60060;SDS011;45933;51.336;12.612;2022-08-21T08:15:06;5.50;;;2.35;;
60060;SDS011;45933;51.336;12.612;2022-08-21T08:17:33;4.65;;;2.15;;
60060;SDS011;45933;51.336;12.612;2022-08-21T08:19:58;3.08;;;1.95;;
60060;SDS011;45933;51.336;12.612;2022-08-21T08:22:26;6.38;;;2.10;;
60060;SDS011;45933;51.336;12.612;2022-08-21T08:24:51;4.93;;;2.10;;
60060;SDS011;45933;51.336;12.612;2022-08-21T08:27:20;5.32;;;2.33;;
60060;SDS011;45933;51.336;12.612;2022-08-21T08:29:46;3.35;;;1.98;;
60060;SDS011;45933;51.336;12.612;2022-08-21T08:32:12;3.70;;;1.80;;
60060;SDS011;45933;51.336;12.612;2022-08-21T08:34:38;4.85;;;2.15;;
60060;SDS011;45933;51.336;12.612;2022-08-21T08:37:04;5.10;;;2.08;;
60060;SDS011;45933;51.336;12.612;2022-08-21T08:39:31;3.55;;;1.85;;
60060;SDS011;45933;51.336;12.612;2022-08-21T08:44:47;3.17;;;1.75;;
60060;SDS011;45933;51.336;12.612;2022-08-21T08:47:16;4.40;;;2.13;;
60060;SDS011;45933;51.336;12.612;2022-08-21T08:49:56;4.28;;;2.08;;
60060;SDS011;45933;51.336;12.612;2022-08-21T08:52:27;3.67;;;1.75;;
60060;SDS011;45933;51.336;12.612;2022-08-21T08:55:05;3.30;;;1.60;;
60060;SDS011;45933;51.336;12.612;2022-08-21T08:57:33;3.10;;;1.75;;
60060;SDS011;45933;51.336;12.612;2022-08-21T09:00:03;5.22;;;2.10;;
60060;SDS011;45933;51.336;12.612;2022-08-21T09:02:31;5.07;;;2.10;;
60060;SDS011;45933;51.336;12.612;2022-08-21T09:04:58;4.90;;;1.58;;
60060;SDS011;45933;51.336;12.612;2022-08-21T09:07:32;4.55;;;1.83;;
60060;SDS011;45933;51.336;12.612;2022-08-21T09:16:01;4.05;;;1.70;;
60060;SDS011;45933;51.336;12.612;2022-08-21T09:24:31;3.42;;;1.73;;
60060;SDS011;45933;51.336;12.612;2022-08-21T09:27:08;3.63;;;1.70;;
60060;SDS011;45933;51.336;12.612;2022-08-21T09:29:38;3.72;;;1.80;;
60060;SDS011;45933;51.336;12.612;2022-08-21T09:32:15;4.63;;;1.45;;
60060;SDS011;45933;51.336;12.612;2022-08-21T09:34:54;3.42;;;1.77;;
60060;SDS011;45933;51.336;12.612;2022-08-21T09:42:55;4.43;;;1.92;;
60060;SDS011;45933;51.336;12.612;2022-08-21T09:45:22;6.03;;;1.52;;
60060;SDS011;45933;51.336;12.612;2022-08-21T09:47:47;4.78;;;1.77;;
60060;SDS011;45933;51.336;12.612;2022-08-21T09:50:14;3.92;;;1.55;;
60060;SDS011;45933;51.336;12.612;2022-08-21T09:52:44;5.70;;;2.00;;
60060;SDS011;45933;51.336;12.612;2022-08-21T09:55:16;4.00;;;1.95;;
60060;SDS011;45933;51.336;12.612;2022-08-21T09:58:04;5.10;;;2.03;;
60060;SDS011;45933;51.336;12.612;2022-08-21T10:00:33;3.55;;;1.50;;
60060;SDS011;45933;51.336;12.612;2022-08-21T10:03:10;3.67;;;1.55;;
60060;SDS011;45933;51.336;12.612;2022-08-21T10:05:38;6.70;;;1.75;;
60060;SDS011;45933;51.336;12.612;2022-08-21T10:08:05;4.72;;;2.00;;
60060;SDS011;45933;51.336;12.612;2022-08-21T10:10:42;4.47;;;1.70;;
60060;SDS011;45933;51.336;12.612;2022-08-21T10:16:03;3.95;;;1.90;;
60060;SDS011;45933;51.336;12.612;2022-08-21T10:30:08;4.00;;;1.50;;
60060;SDS011;45933;51.336;12.612;2022-08-21T10:35:53;7.43;;;1.60;;
60060;SDS011;45933;51.336;12.612;2022-08-21T10:46:53;3.85;;;1.85;;
60060;SDS011;45933;51.336;12.612;2022-08-21T10:49:24;2.83;;;1.83;;
60060;SDS011;45933;51.336;12.612;2022-08-21T10:52:27;2.70;;;1.63;;
60060;SDS011;45933;51.336;12.612;2022-08-21T10:55:09;3.10;;;1.73;;
60060;SDS011;45933;51.336;12.612;2022-08-21T10:57:58;3.95;;;1.75;;
60060;SDS011;45933;51.336;12.612;2022-08-21T11:00:34;4.18;;;1.95;;
60060;SDS011;45933;51.336;12.612;2022-08-21T11:03:16;4.40;;;1.90;;
60060;SDS011;45933;51.336;12.612;2022-08-21T11:05:52;6.93;;;2.10;;
60060;SDS011;45933;51.336;12.612;2022-08-21T11:08:21;4.70;;;1.80;;
60060;SDS011;45933;51.336;12.612;2022-08-21T11:11:03;4.32;;;1.75;;
60060;SDS011;45933;51.336;12.612;2022-08-21T11:16:57;5.10;;;1.73;;
60060;SDS011;45933;51.336;12.612;2022-08-21T11:19:17;4.03;;;1.63;;
60060;SDS011;45933;51.336;12.612;2022-08-21T11:21:55;7.93;;;1.90;;
60060;SDS011;45933;51.336;12.612;2022-08-21T11:29:55;7.65;;;2.40;;
60060;SDS011;45933;51.336;12.612;2022-08-21T11:35:11;4.35;;;1.70;;
60060;SDS011;45933;51.336;12.612;2022-08-21T11:45:54;5.38;;;1.63;;
60060;SDS011;45933;51.336;12.612;2022-08-21T11:50:58;2.17;;;1.45;;
60060;SDS011;45933;51.336;12.612;2022-08-21T11:53:31;4.55;;;2.22;;
60060;SDS011;45933;51.336;12.612;2022-08-21T11:56:06;4.65;;;1.80;;
60060;SDS011;45933;51.336;12.612;2022-08-21T11:58:40;2.72;;;1.67;;
60060;SDS011;45933;51.336;12.612;2022-08-21T12:01:10;3.95;;;1.98;;
60060;SDS011;45933;51.336;12.612;2022-08-21T12:06:33;3.60;;;1.80;;
60060;SDS011;45933;51.336;12.612;2022-08-21T12:09:05;4.20;;;1.98;;
60060;SDS011;45933;51.336;12.612;2022-08-21T12:11:32;3.85;;;1.67;;
60060;SDS011;45933;51.336;12.612;2022-08-21T12:14:13;4.03;;;1.77;;
60060;SDS011;45933;51.336;12.612;2022-08-21T12:16:44;3.67;;;1.63;;
60060;SDS011;45933;51.336;12.612;2022-08-21T12:26:53;4.85;;;1.88;;
60060;SDS011;45933;51.336;12.612;2022-08-21T12:31:59;4.90;;;2.00;;
60060;SDS011;45933;51.336;12.612;2022-08-21T12:34:37;5.28;;;2.17;;
60060;SDS011;45933;51.336;12.612;2022-08-21T12:40:11;3.83;;;1.90;;
60060;SDS011;45933;51.336;12.612;2022-08-21T12:42:47;3.85;;;1.90;;
60060;SDS011;45933;51.336;12.612;2022-08-21T12:45:18;2.63;;;1.45;;
60060;SDS011;45933;51.336;12.612;2022-08-21T12:47:48;3.10;;;1.50;;
60060;SDS011;45933;51.336;12.612;2022-08-21T12:50:22;4.75;;;1.70;;
60060;SDS011;45933;51.336;12.612;2022-08-21T12:53:06;3.88;;;2.00;;
60060;SDS011;45933;51.336;12.612;2022-08-21T12:55:35;5.53;;;1.70;;
60060;SDS011;45933;51.336;12.612;2022-08-21T12:58:06;3.28;;;1.55;;
60060;SDS011;45933;51.336;12.612;2022-08-21T13:00:32;3.08;;;1.60;;
60060;SDS011;45933;51.336;12.612;2022-08-21T13:02:57;6.32;;;2.13;;
60060;SDS011;45933;51.336;12.612;2022-08-21T13:05:31;5.47;;;1.63;;
60060;SDS011;45933;51.336;12.612;2022-08-21T13:07:59;4.75;;;1.73;;
60060;SDS011;45933;51.336;12.612;2022-08-21T13:10:30;3.22;;;1.60;;
60060;SDS011;45933;51.336;12.612;2022-08-21T13:13:03;4.93;;;1.88;;
60060;SDS011;45933;51.336;12.612;2022-08-21T13:15:34;4.32;;;1.83;;
60060;SDS011;45933;51.336;12.612;2022-08-21T13:18:01;5.00;;;2.10;;
60060;SDS011;45933;51.336;12.612;2022-08-21T13:20:29;3.65;;;1.60;;
60060;SDS011;45933;51.336;12.612;2022-08-21T13:23:00;4.10;;;1.50;;
60060;SDS011;45933;51.336;12.612;2022-08-21T13:25:28;5.30;;;1.77;;
60060;SDS011;45933;51.336;12.612;2022-08-21T13:28:00;3.13;;;1.50;;
60060;SDS011;45933;51.336;12.612;2022-08-21T13:33:09;4.60;;;1.65;;
60060;SDS011;45933;51.336;12.612;2022-08-21T13:35:48;2.70;;;1.45;;
60060;SDS011;45933;51.336;12.612;2022-08-21T13:38:31;4.10;;;1.77;;
60060;SDS011;45933;51.336;12.612;2022-08-21T13:41:01;6.35;;;1.60;;
60060;SDS011;45933;51.336;12.612;2022-08-21T13:43:33;3.72;;;1.83;;
60060;SDS011;45933;51.336;12.612;2022-08-21T13:46:00;3.45;;;1.83;;
60060;SDS011;45933;51.336;12.612;2022-08-21T13:48:31;2.63;;;1.67;;
60060;SDS011;45933;51.336;12.612;2022-08-21T13:50:59;6.40;;;1.80;;
60060;SDS011;45933;51.336;12.612;2022-08-21T13:53:30;4.15;;;1.80;;
60060;SDS011;45933;51.336;12.612;2022-08-21T13:56:20;3.63;;;1.83;;
60060;SDS011;45933;51.336;12.612;2022-08-21T13:58:58;3.38;;;1.80;;
60060;SDS011;45933;51.336;12.612;2022-08-21T14:01:28;2.83;;;1.52;;
60060;SDS011;45933;51.336;12.612;2022-08-21T14:04:02;6.50;;;2.03;;
60060;SDS011;45933;51.336;12.612;2022-08-21T14:06:35;4.45;;;2.00;;
60060;SDS011;45933;51.336;12.612;2022-08-21T14:09:09;3.50;;;1.60;;
60060;SDS011;45933;51.336;12.612;2022-08-21T14:11:37;3.50;;;1.80;;
60060;SDS011;45933;51.336;12.612;2022-08-21T14:14:50;5.88;;;1.80;;
60060;SDS011;45933;51.336;12.612;2022-08-21T14:16:56;3.25;;;1.85;;
60060;SDS011;45933;51.336;12.612;2022-08-21T14:19:35;3.08;;;1.50;;
60060;SDS011;45933;51.336;12.612;2022-08-21T14:24:58;4.30;;;1.98;;
60060;SDS011;45933;51.336;12.612;2022-08-21T14:27:38;5.63;;;1.70;;
60060;SDS011;45933;51.336;12.612;2022-08-21T14:30:14;3.10;;;1.60;;
60060;SDS011;45933;51.336;12.612;2022-08-21T14:33:02;4.97;;;1.90;;
60060;SDS011;45933;51.336;12.612;2022-08-21T14:35:29;3.85;;;1.90;;
60060;SDS011;45933;51.336;12.612;2022-08-21T14:37:56;5.95;;;2.38;;
60060;SDS011;45933;51.336;12.612;2022-08-21T14:40:22;3.63;;;2.00;;
60060;SDS011;45933;51.336;12.612;2022-08-21T14:42:49;3.40;;;1.73;;
60060;SDS011;45933;51.336;12.612;2022-08-21T14:45:17;2.83;;;1.60;;
60060;SDS011;45933;51.336;12.612;2022-08-21T14:47:53;3.25;;;1.75;;
60060;SDS011;45933;51.336;12.612;2022-08-21T14:50:20;2.75;;;1.48;;
60060;SDS011;45933;51.336;12.612;2022-08-21T14:52:45;4.43;;;2.05;;
60060;SDS011;45933;51.336;12.612;2022-08-21T14:55:11;4.70;;;1.63;;
60060;SDS011;45933;51.336;12.612;2022-08-21T14:57:39;4.35;;;2.10;;
60060;SDS011;45933;51.336;12.612;2022-08-21T15:00:08;4.35;;;1.60;;
60060;SDS011;45933;51.336;12.612;2022-08-21T15:02:35;2.85;;;1.50;;
60060;SDS011;45933;51.336;12.612;2022-08-21T15:05:00;3.55;;;1.63;;
60060;SDS011;45933;51.336;12.612;2022-08-21T15:07:26;4.10;;;1.45;;
60060;SDS011;45933;51.336;12.612;2022-08-21T15:09:51;3.58;;;1.83;;
60060;SDS011;45933;51.336;12.612;2022-08-21T15:12:17;3.28;;;1.63;;
60060;SDS011;45933;51.336;12.612;2022-08-21T15:14:43;4.05;;;1.52;;
60060;SDS011;45933;51.336;12.612;2022-08-21T15:17:09;4.63;;;1.40;;
60060;SDS011;45933;51.336;12.612;2022-08-21T15:19:35;3.80;;;1.60;;
60060;SDS011;45933;51.336;12.612;2022-08-21T15:22:02;5.35;;;1.88;;
60060;SDS011;45933;51.336;12.612;2022-08-21T15:24:28;3.03;;;1.40;;
60060;SDS011;45933;51.336;12.612;2022-08-21T15:26:54;4.75;;;2.03;;
60060;SDS011;45933;51.336;12.612;2022-08-21T15:29:20;5.10;;;2.08;;
60060;SDS011;45933;51.336;12.612;2022-08-21T15:31:51;2.55;;;1.30;;
60060;SDS011;45933;51.336;12.612;2022-08-21T15:34:22;3.25;;;1.67;;
60060;SDS011;45933;51.336;12.612;2022-08-21T15:36:49;5.63;;;1.80;;
60060;SDS011;45933;51.336;12.612;2022-08-21T15:39:14;4.13;;;2.00;;
60060;SDS011;45933;51.336;12.612;2022-08-21T15:41:40;4.43;;;2.10;;
60060;SDS011;45933;51.336;12.612;2022-08-21T15:44:05;3.83;;;1.55;;
60060;SDS011;45933;51.336;12.612;2022-08-21T15:46:31;4.28;;;1.83;;
60060;SDS011;45933;51.336;12.612;2022-08-21T15:48:56;3.40;;;1.45;;
60060;SDS011;45933;51.336;12.612;2022-08-21T15:51:22;2.97;;;1.73;;
60060;SDS011;45933;51.336;12.612;2022-08-21T15:53:47;12.25;;;2.30;;
60060;SDS011;45933;51.336;12.612;2022-08-21T15:56:20;2.22;;;1.52;;
60060;SDS011;45933;51.336;12.612;2022-08-21T15:58:53;3.95;;;1.58;;
60060;SDS011;45933;51.336;12.612;2022-08-21T16:01:23;4.03;;;1.77;;
60060;SDS011;45933;51.336;12.612;2022-08-21T16:03:49;10.85;;;2.08;;
60060;SDS011;45933;51.336;12.612;2022-08-21T16:06:18;7.00;;;1.63;;
60060;SDS011;45933;51.336;12.612;2022-08-21T16:08:44;7.25;;;2.00;;